Alma — P3MF8 — position and weather

sailwx.info

Track history (hours):
 
Tides and Currents Weather Stations Pressure Air Temp Water Temp Dewpoint Dewpoint Depression Visibility Wind Speed Wind Dir Waves Ship Positions

Alma

Last reported at 2017-Dec-15 02:29 UTC. Time now 2017-Dec-15 19:59 UTC.
Position N 38°41' W 010°06'.

Length 98 m; draft 5.6 m.

Type: Cargo ship. MMSI: 212856000.

Date/timePositionNaut miles runAvg speedWind from/ knotsBaromVisibWave heightAir tempDewpointWater temp
2017-Dec-15 02:29N 38°41' W 010°06'2114.2
2017-Dec-15 01:00N 39°02' W 010°08'714.5
2017-Dec-15 00:30N 39°10' W 010°08'  
2017-Dec-12 16:35N 49°47' W 003°26'113.4
2017-Dec-12 16:30N 49°48' W 003°25'713.2
2017-Dec-12 16:00N 49°51' W 003°16'713.1
2017-Dec-12 15:30N 49°54' W 003°07'713.0
2017-Dec-12 15:00N 49°58' W 002°58'713.0
2017-Dec-12 14:28N 50°01' W 002°49'913.1
2017-Dec-12 13:49N 50°04' W 002°37'513.3
2017-Dec-12 13:26N 50°06' W 002°29'6415.5
2017-Dec-12 09:17N 50°22' W 000°52'1816.3
2017-Dec-12 08:11N 50°27' W 000°25'315.8
2017-Dec-12 08:00N 50°28' W 000°20'815.5
2017-Dec-12 07:30N 50°30' W 000°09'815.3
2017-Dec-12 07:00N 50°32' E 000°03'714.9
2017-Dec-12 06:30N 50°33' E 000°14'714.5
2017-Dec-12 06:00N 50°35' E 000°25'714.3
2017-Dec-12 05:30N 50°37' E 000°36'714.1
2017-Dec-12 05:00N 50°40' E 000°46'714.3
2017-Dec-12 04:30N 50°43' E 000°56'714.5
2017-Dec-12 04:00N 50°47' E 001°06'715.0
2017-Dec-12 03:30N 50°52' E 001°14'816.2
2017-Dec-12 03:01N 50°58' E 001°23'917.2
2017-Dec-12 02:30N 51°05' E 001°32'917.2
2017-Dec-12 02:00N 51°11' E 001°41'816.5
2017-Dec-12 01:31N 51°18' E 001°49'815.9
2017-Dec-12 01:00N 51°25' E 001°54'815.1
2017-Dec-12 00:30N 51°31' E 002°01'914.9
2017-Dec-11 23:56N 51°38' E 002°10'914.3
2017-Dec-11 23:19N 51°44' E 002°20'2413.9
2017-Dec-11 21:34N 52°02' E 002°47'113.4
2017-Dec-11 21:30N 52°03' E 002°48'713.6
2017-Dec-11 21:00N 52°07' E 002°55'713.7
2017-Dec-11 20:31N 52°12' E 003°03'713.8
2017-Dec-11 20:00N 52°18' E 003°10'713.8
2017-Dec-11 19:30N 52°23' E 003°18'713.8
2017-Dec-11 19:00N 52°25' E 003°28'714.2
2017-Dec-11 18:30N 52°27' E 003°40'814.8
2017-Dec-11 17:57N 52°31' E 003°51'613.8
2017-Dec-11 17:31N 52°31' E 004°02'815.0
2017-Dec-11 17:01N 52°31' E 004°14'713.8
2017-Dec-11 16:30N 52°29' E 004°25'5 9.1
2017-Dec-11 16:00N 52°28' E 004°32'3 5.5
2017-Dec-11 15:31N 52°28' E 004°37'2 3.2
2017-Dec-11 15:00N 52°28' E 004°39'0 0.7
2017-Dec-11 14:30N 52°28' E 004°40'0 0.0
2017-Dec-11 14:00N 52°28' E 004°40'0 0.0
2017-Dec-11 13:30N 52°28' E 004°40'0 0.0
2017-Dec-11 13:00N 52°28' E 004°40'0 0.0
2017-Dec-11 12:30N 52°28' E 004°40'0 0.0
2017-Dec-11 12:00N 52°28' E 004°40'0 0.0
2017-Dec-11 11:27N 52°28' E 004°40'0 0.0
2017-Dec-11 11:00N 52°28' E 004°40'0 0.0
2017-Dec-11 10:30N 52°28' E 004°40'0 0.0
2017-Dec-11 10:00N 52°28' E 004°40'0 0.0
2017-Dec-11 09:30N 52°28' E 004°40'0 0.0
2017-Dec-11 09:00N 52°28' E 004°40'0 0.0
2017-Dec-11 08:30N 52°28' E 004°40'0 0.0
2017-Dec-11 08:00N 52°28' E 004°40'0 0.0
2017-Dec-11 07:30N 52°28' E 004°40'0 0.0
2017-Dec-11 07:00N 52°28' E 004°40'0 0.0
2017-Dec-11 06:30N 52°28' E 004°40'0 0.0
2017-Dec-11 06:00N 52°28' E 004°40'0 0.0
2017-Dec-11 05:30N 52°28' E 004°40'0 0.0
2017-Dec-11 05:00N 52°28' E 004°40'0 0.0
2017-Dec-11 04:30N 52°28' E 004°40'0 0.0
2017-Dec-11 03:57N 52°28' E 004°40'0 0.0
2017-Dec-11 03:30N 52°28' E 004°40'0 0.0
2017-Dec-11 03:00N 52°28' E 004°40'0 0.0
2017-Dec-11 02:30N 52°28' E 004°40'0 0.0
2017-Dec-11 01:30N 52°28' E 004°40'0 0.0
2017-Dec-11 01:00N 52°28' E 004°40'0 0.0
2017-Dec-11 00:30N 52°28' E 004°40'0 0.0
2017-Dec-11 00:00N 52°28' E 004°40'0 0.0
2017-Dec-10 23:30N 52°28' E 004°40'0 0.0
2017-Dec-10 23:00N 52°28' E 004°40'0 0.0
2017-Dec-10 22:30N 52°28' E 004°40'0 0.0
2017-Dec-10 22:00N 52°28' E 004°40'0 0.0
2017-Dec-10 21:30N 52°28' E 004°40'0 0.0
2017-Dec-10 21:00N 52°28' E 004°40'0 0.0
2017-Dec-10 20:30N 52°28' E 004°40'0 0.0
2017-Dec-10 20:00N 52°28' E 004°40'0 0.0
2017-Dec-10 19:27N 52°28' E 004°40'0 0.0
2017-Dec-10 19:00N 52°28' E 004°40'0 0.0
2017-Dec-10 18:27N 52°28' E 004°40'0 0.0
2017-Dec-10 17:54N 52°28' E 004°40'0 0.0
2017-Dec-10 17:27N 52°28' E 004°40'0 0.0
2017-Dec-10 17:00N 52°28' E 004°40'0 0.0
2017-Dec-10 16:30N 52°28' E 004°40'0 0.0
2017-Dec-10 16:00N 52°28' E 004°40'0 0.0
2017-Dec-10 15:30N 52°28' E 004°40'0 0.0
2017-Dec-10 15:00N 52°28' E 004°40'0 0.0
2017-Dec-10 14:27N 52°28' E 004°40'0 0.0
2017-Dec-10 14:00N 52°28' E 004°40'0 0.0
2017-Dec-10 13:27N 52°28' E 004°40'0 0.0
2017-Dec-10 13:00N 52°28' E 004°40'0 0.0
2017-Dec-10 12:30N 52°28' E 004°40'0 0.0
2017-Dec-10 11:57N 52°28' E 004°40'0 0.0
2017-Dec-10 11:30N 52°28' E 004°40'0 0.0
2017-Dec-10 11:00N 52°28' E 004°40'0 0.0
2017-Dec-10 10:30N 52°28' E 004°40'0 0.0
2017-Dec-10 10:00N 52°28' E 004°40'0 0.0
2017-Dec-10 09:30N 52°28' E 004°40'0 0.0
2017-Dec-10 09:00N 52°28' E 004°40'0 0.0
2017-Dec-10 08:30N 52°28' E 004°40'0 0.0
2017-Dec-10 07:57N 52°28' E 004°40'0 0.0
2017-Dec-10 07:30N 52°28' E 004°40'0 0.0
2017-Dec-10 07:00N 52°28' E 004°40'0 0.0
2017-Dec-10 06:30N 52°28' E 004°40'0 0.0
2017-Dec-10 06:00N 52°28' E 004°40'0 0.0
2017-Dec-10 05:30N 52°28' E 004°40'0 0.0
2017-Dec-10 04:57N 52°28' E 004°40'0 0.0
2017-Dec-10 04:30N 52°28' E 004°40'0 0.0
2017-Dec-10 03:51N 52°28' E 004°40'0 0.0
2017-Dec-10 03:30N 52°28' E 004°40'0 0.0
2017-Dec-10 03:00N 52°28' E 004°40'0 0.0
2017-Dec-10 02:30N 52°28' E 004°40'0 0.0
2017-Dec-10 02:00N 52°28' E 004°40'0 0.0
2017-Dec-10 01:30N 52°28' E 004°40'0 0.0
2017-Dec-10 01:00N 52°28' E 004°40'0 0.0
2017-Dec-10 00:27N 52°28' E 004°40'0 0.0
2017-Dec-10 00:00N 52°28' E 004°40'0 0.0
2017-Dec-09 23:27N 52°28' E 004°40'0 0.0
2017-Dec-09 23:00N 52°28' E 004°40'0 0.0
2017-Dec-09 22:30N 52°28' E 004°40'0 0.0
2017-Dec-09 22:00N 52°28' E 004°40'0 0.0
2017-Dec-09 21:27N 52°28' E 004°40'0 0.0
2017-Dec-09 21:00N 52°28' E 004°40'0 0.0
2017-Dec-09 20:30N 52°28' E 004°40'0 0.0
2017-Dec-09 19:57N 52°28' E 004°40'0 0.0
2017-Dec-09 19:30N 52°28' E 004°40'0 0.0
2017-Dec-09 19:00N 52°28' E 004°40'0 0.0
2017-Dec-09 18:30N 52°28' E 004°40'0 0.0
2017-Dec-09 17:57N 52°28' E 004°40'0 0.0
2017-Dec-09 17:30N 52°28' E 004°40'0 0.0
2017-Dec-09 17:00N 52°28' E 004°40'0 0.0
2017-Dec-09 16:30N 52°28' E 004°40'0 0.0
2017-Dec-09 16:00N 52°28' E 004°40'0 0.0
2017-Dec-09 15:27N 52°28' E 004°40'0 0.0
2017-Dec-09 15:00N 52°28' E 004°40'0 0.0
2017-Dec-09 14:30N 52°28' E 004°40'0 0.0
2017-Dec-09 13:57N 52°28' E 004°40'0 0.0
2017-Dec-09 13:30N 52°28' E 004°40'0 0.0
2017-Dec-09 13:00N 52°28' E 004°40'0 0.0
2017-Dec-09 12:30N 52°28' E 004°40'0 0.0
2017-Dec-09 12:00N 52°28' E 004°40'0 0.0
2017-Dec-09 11:30N 52°28' E 004°40'0 0.0
2017-Dec-09 11:00N 52°28' E 004°40'0 0.0
2017-Dec-09 10:30N 52°28' E 004°40'0 0.0
2017-Dec-09 10:00N 52°28' E 004°40'0 0.0
2017-Dec-09 09:30N 52°28' E 004°40'0 0.0
2017-Dec-09 09:00N 52°28' E 004°40'0 0.0
2017-Dec-09 08:30N 52°28' E 004°40'0 0.0
2017-Dec-09 07:57N 52°28' E 004°40'0 0.0
2017-Dec-09 07:27N 52°28' E 004°40'0 0.0
2017-Dec-09 07:00N 52°28' E 004°40'0 0.0
2017-Dec-09 06:27N 52°28' E 004°40'0 0.0
2017-Dec-09 06:00N 52°28' E 004°40'0 0.0
2017-Dec-09 05:30N 52°28' E 004°40'0 0.0
2017-Dec-09 05:00N 52°28' E 004°40'0 0.0
2017-Dec-09 04:30N 52°28' E 004°40'0 0.0
2017-Dec-09 04:00N 52°28' E 004°40'0 0.0
2017-Dec-09 03:30N 52°28' E 004°40'0 0.0
2017-Dec-09 03:00N 52°28' E 004°40'0 0.0
2017-Dec-09 02:30N 52°28' E 004°40'0 0.0
2017-Dec-09 02:00N 52°28' E 004°40'0 0.0
2017-Dec-09 01:27N 52°28' E 004°40'0 0.0
2017-Dec-09 01:00N 52°28' E 004°40'0 0.0
2017-Dec-09 00:30N 52°28' E 004°40'0 0.0
2017-Dec-09 00:00N 52°28' E 004°40'0 0.0
2017-Dec-08 23:21N 52°28' E 004°40'0 0.0
2017-Dec-08 22:57N 52°28' E 004°40'0 0.0
2017-Dec-08 22:30N 52°28' E 004°40'0 0.0
2017-Dec-08 22:00N 52°28' E 004°40'0 0.0
2017-Dec-08 21:30N 52°28' E 004°40'0 0.0
2017-Dec-08 21:00N 52°28' E 004°40'0 0.0
2017-Dec-08 20:30N 52°28' E 004°40'0 0.0
2017-Dec-08 19:57N 52°28' E 004°40'0 0.0
2017-Dec-08 19:30N 52°28' E 004°40'0 0.0
2017-Dec-08 19:00N 52°28' E 004°40'0 0.0
2017-Dec-08 18:30N 52°28' E 004°40'0 0.0
2017-Dec-08 17:57N 52°28' E 004°40'0 0.0
2017-Dec-08 17:30N 52°28' E 004°40'0 0.0
2017-Dec-08 17:00N 52°28' E 004°40'0 0.0
2017-Dec-08 16:27N 52°28' E 004°40'0 0.0
2017-Dec-08 15:57N 52°28' E 004°40'0 0.0
2017-Dec-08 15:30N 52°28' E 004°40'0 0.0
2017-Dec-08 15:00N 52°28' E 004°40'0 0.0
2017-Dec-08 14:30N 52°28' E 004°40'0 0.0
2017-Dec-08 14:00N 52°28' E 004°40'0 0.0
2017-Dec-08 13:27N 52°28' E 004°40'0 0.0
2017-Dec-08 13:00N 52°28' E 004°40'0 0.0
2017-Dec-08 12:30N 52°28' E 004°40'0 0.0
2017-Dec-08 12:00N 52°28' E 004°40'0 0.0
2017-Dec-08 11:30N 52°28' E 004°40'0 0.0
2017-Dec-08 11:00N 52°28' E 004°40'0 0.0
2017-Dec-08 10:27N 52°28' E 004°40'0 0.0
2017-Dec-08 10:00N 52°28' E 004°40'0 0.0
2017-Dec-08 09:30N 52°28' E 004°40'0 0.0
2017-Dec-08 09:00N 52°28' E 004°40'0 0.0
2017-Dec-08 08:30N 52°28' E 004°40'0 0.0
2017-Dec-08 08:00N 52°28' E 004°40'0 0.0
2017-Dec-08 07:27N 52°28' E 004°40'0 0.0
2017-Dec-08 06:57N 52°28' E 004°40'0 0.0
2017-Dec-08 06:30N 52°28' E 004°40'0 0.0
2017-Dec-08 06:00N 52°28' E 004°40'0 0.0
2017-Dec-08 05:30N 52°28' E 004°40'0 0.0
2017-Dec-08 05:00N 52°28' E 004°40'0 0.0
2017-Dec-08 04:30N 52°28' E 004°40'0 0.0
2017-Dec-08 04:00N 52°28' E 004°40'0 0.0
2017-Dec-08 03:27N 52°28' E 004°40'0 0.0
2017-Dec-08 02:57N 52°28' E 004°40'0 0.0
2017-Dec-08 02:27N 52°28' E 004°40'0 0.0
2017-Dec-08 02:00N 52°28' E 004°40'0 0.0
2017-Dec-08 01:27N 52°28' E 004°40'0 0.0
2017-Dec-08 01:00N 52°28' E 004°40'0 0.0
2017-Dec-08 00:30N 52°28' E 004°40'0 0.0
2017-Dec-08 00:00N 52°28' E 004°40'0 0.0
2017-Dec-07 23:30N 52°28' E 004°40'0 0.0
2017-Dec-07 23:00N 52°28' E 004°40'0 0.0
2017-Dec-07 22:27N 52°28' E 004°40'0 0.0
2017-Dec-07 22:00N 52°28' E 004°40'0 0.0
2017-Dec-07 21:30N 52°28' E 004°40'0 0.0
2017-Dec-07 21:00N 52°28' E 004°40'0 0.0
2017-Dec-07 20:30N 52°28' E 004°40'0 0.0
2017-Dec-07 20:00N 52°28' E 004°40'0 0.0
2017-Dec-07 19:30N 52°28' E 004°40'0 0.0
2017-Dec-07 19:00N 52°28' E 004°40'0 0.0
2017-Dec-07 18:27N 52°28' E 004°40'0 0.0
2017-Dec-07 18:00N 52°28' E 004°40'0 0.0
2017-Dec-07 17:30N 52°28' E 004°40'0 0.0
2017-Dec-07 17:00N 52°28' E 004°40'0 0.0
2017-Dec-07 16:30N 52°28' E 004°40'0 0.0
2017-Dec-07 16:00N 52°28' E 004°40'0 0.0
2017-Dec-07 15:30N 52°28' E 004°40'0 0.0
2017-Dec-07 15:00N 52°28' E 004°40'0 0.0
2017-Dec-07 14:30N 52°28' E 004°40'0 0.0
2017-Dec-07 13:57N 52°28' E 004°40'0 0.0
2017-Dec-07 13:30N 52°28' E 004°40'0 0.0
2017-Dec-07 13:00N 52°28' E 004°40'0 0.0
2017-Dec-07 12:27N 52°28' E 004°40'0 0.0
2017-Dec-07 11:57N 52°28' E 004°40'0 0.0
2017-Dec-07 11:27N 52°28' E 004°40'0 0.0
2017-Dec-07 11:00N 52°28' E 004°40'0 0.0
2017-Dec-07 10:30N 52°28' E 004°40'0 0.0
2017-Dec-07 10:00N 52°28' E 004°40'0 0.0
2017-Dec-07 09:30N 52°28' E 004°40'0 0.0
2017-Dec-07 09:00N 52°28' E 004°40'0 0.0
2017-Dec-07 08:27N 52°28' E 004°40'0 0.0
2017-Dec-07 08:00N 52°28' E 004°40'0 0.0
2017-Dec-07 07:30N 52°28' E 004°40'0 0.0
2017-Dec-07 06:59N 52°28' E 004°40'0 0.0
2017-Dec-07 06:29N 52°28' E 004°40'0 0.0
2017-Dec-07 05:56N 52°28' E 004°40'0 0.0
2017-Dec-07 05:29N 52°28' E 004°40'0 0.0
2017-Dec-07 04:59N 52°28' E 004°40'0 0.0
2017-Dec-07 04:26N 52°28' E 004°40'0 0.0
2017-Dec-07 03:59N 52°28' E 004°40'0 0.0
2017-Dec-07 03:29N 52°28' E 004°40'0 0.0
2017-Dec-07 02:59N 52°28' E 004°40'0 0.0
2017-Dec-07 02:29N 52°28' E 004°40'0 0.0
2017-Dec-07 01:56N 52°28' E 004°40'0 0.0
2017-Dec-07 01:29N 52°28' E 004°40'0 0.0
2017-Dec-07 00:56N 52°28' E 004°40'0 0.0
2017-Dec-07 00:29N 52°28' E 004°40'0 0.0
2017-Dec-06 23:59N 52°28' E 004°40'0 0.0
2017-Dec-06 23:29N 52°28' E 004°40'0 0.0
2017-Dec-06 22:59N 52°28' E 004°40'0 0.0
2017-Dec-06 22:29N 52°28' E 004°40'0 0.0
2017-Dec-06 21:59N 52°28' E 004°40'0 0.0
2017-Dec-06 21:29N 52°28' E 004°40'0 0.0
2017-Dec-06 20:59N 52°28' E 004°40'  
Track history (hours):
 
Tides and Currents Weather Stations Pressure Air Temp Water Temp Dewpoint Dewpoint Depression Visibility Wind Speed Wind Dir Waves Ship Positions

Alma

Last reported at 2017-Dec-15 02:29 UTC. Time now 2017-Dec-15 19:59 UTC.
Position N 38°41' W 010°06'.

Length 98 m; draft 5.6 m.

Type: Cargo ship. MMSI: 212856000.

Date/timePositionNaut miles runAvg speedWind from/ knotsBaromVisibWave heightAir tempDewpointWater temp
2017-Dec-15 02:29N 38°41' W 010°06'2114.2
2017-Dec-15 01:00N 39°02' W 010°08'714.5
2017-Dec-15 00:30N 39°10' W 010°08'  
2017-Dec-12 16:35N 49°47' W 003°26'113.4
2017-Dec-12 16:30N 49°48' W 003°25'713.2
2017-Dec-12 16:00N 49°51' W 003°16'713.1
2017-Dec-12 15:30N 49°54' W 003°07'713.0
2017-Dec-12 15:00N 49°58' W 002°58'713.0
2017-Dec-12 14:28N 50°01' W 002°49'913.1
2017-Dec-12 13:49N 50°04' W 002°37'513.3
2017-Dec-12 13:26N 50°06' W 002°29'6415.5
2017-Dec-12 09:17N 50°22' W 000°52'1816.3
2017-Dec-12 08:11N 50°27' W 000°25'315.8
2017-Dec-12 08:00N 50°28' W 000°20'815.5
2017-Dec-12 07:30N 50°30' W 000°09'815.3
2017-Dec-12 07:00N 50°32' E 000°03'714.9
2017-Dec-12 06:30N 50°33' E 000°14'714.5
2017-Dec-12 06:00N 50°35' E 000°25'714.3
2017-Dec-12 05:30N 50°37' E 000°36'714.1
2017-Dec-12 05:00N 50°40' E 000°46'714.3
2017-Dec-12 04:30N 50°43' E 000°56'714.5
2017-Dec-12 04:00N 50°47' E 001°06'715.0
2017-Dec-12 03:30N 50°52' E 001°14'816.2
2017-Dec-12 03:01N 50°58' E 001°23'917.2
2017-Dec-12 02:30N 51°05' E 001°32'917.2
2017-Dec-12 02:00N 51°11' E 001°41'816.5
2017-Dec-12 01:31N 51°18' E 001°49'815.9
2017-Dec-12 01:00N 51°25' E 001°54'815.1
2017-Dec-12 00:30N 51°31' E 002°01'914.9
2017-Dec-11 23:56N 51°38' E 002°10'914.3
2017-Dec-11 23:19N 51°44' E 002°20'2413.9
2017-Dec-11 21:34N 52°02' E 002°47'113.4
2017-Dec-11 21:30N 52°03' E 002°48'713.6
2017-Dec-11 21:00N 52°07' E 002°55'713.7
2017-Dec-11 20:31N 52°12' E 003°03'713.8
2017-Dec-11 20:00N 52°18' E 003°10'713.8
2017-Dec-11 19:30N 52°23' E 003°18'713.8
2017-Dec-11 19:00N 52°25' E 003°28'714.2
2017-Dec-11 18:30N 52°27' E 003°40'814.8
2017-Dec-11 17:57N 52°31' E 003°51'613.8
2017-Dec-11 17:31N 52°31' E 004°02'815.0
2017-Dec-11 17:01N 52°31' E 004°14'713.8
2017-Dec-11 16:30N 52°29' E 004°25'5 9.1
2017-Dec-11 16:00N 52°28' E 004°32'3 5.5
2017-Dec-11 15:31N 52°28' E 004°37'2 3.2
2017-Dec-11 15:00N 52°28' E 004°39'0 0.7
2017-Dec-11 14:30N 52°28' E 004°40'0 0.0
2017-Dec-11 14:00N 52°28' E 004°40'0 0.0
2017-Dec-11 13:30N 52°28' E 004°40'0 0.0
2017-Dec-11 13:00N 52°28' E 004°40'0 0.0
2017-Dec-11 12:30N 52°28' E 004°40'0 0.0
2017-Dec-11 12:00N 52°28' E 004°40'0 0.0
2017-Dec-11 11:27N 52°28' E 004°40'0 0.0
2017-Dec-11 11:00N 52°28' E 004°40'0 0.0
2017-Dec-11 10:30N 52°28' E 004°40'0 0.0
2017-Dec-11 10:00N 52°28' E 004°40'0 0.0
2017-Dec-11 09:30N 52°28' E 004°40'0 0.0
2017-Dec-11 09:00N 52°28' E 004°40'0 0.0
2017-Dec-11 08:30N 52°28' E 004°40'0 0.0
2017-Dec-11 08:00N 52°28' E 004°40'0 0.0
2017-Dec-11 07:30N 52°28' E 004°40'0 0.0
2017-Dec-11 07:00N 52°28' E 004°40'0 0.0
2017-Dec-11 06:30N 52°28' E 004°40'0 0.0
2017-Dec-11 06:00N 52°28' E 004°40'0 0.0
2017-Dec-11 05:30N 52°28' E 004°40'0 0.0
2017-Dec-11 05:00N 52°28' E 004°40'0 0.0
2017-Dec-11 04:30N 52°28' E 004°40'0 0.0
2017-Dec-11 03:57N 52°28' E 004°40'0 0.0
2017-Dec-11 03:30N 52°28' E 004°40'0 0.0
2017-Dec-11 03:00N 52°28' E 004°40'0 0.0
2017-Dec-11 02:30N 52°28' E 004°40'0 0.0
2017-Dec-11 01:30N 52°28' E 004°40'0 0.0
2017-Dec-11 01:00N 52°28' E 004°40'0 0.0
2017-Dec-11 00:30N 52°28' E 004°40'0 0.0
2017-Dec-11 00:00N 52°28' E 004°40'0 0.0
2017-Dec-10 23:30N 52°28' E 004°40'0 0.0
2017-Dec-10 23:00N 52°28' E 004°40'0 0.0
2017-Dec-10 22:30N 52°28' E 004°40'0 0.0
2017-Dec-10 22:00N 52°28' E 004°40'0 0.0
2017-Dec-10 21:30N 52°28' E 004°40'0 0.0
2017-Dec-10 21:00N 52°28' E 004°40'0 0.0
2017-Dec-10 20:30N 52°28' E 004°40'0 0.0
2017-Dec-10 20:00N 52°28' E 004°40'0 0.0
2017-Dec-10 19:27N 52°28' E 004°40'0 0.0
2017-Dec-10 19:00N 52°28' E 004°40'0 0.0
2017-Dec-10 18:27N 52°28' E 004°40'0 0.0
2017-Dec-10 17:54N 52°28' E 004°40'0 0.0
2017-Dec-10 17:27N 52°28' E 004°40'0 0.0
2017-Dec-10 17:00N 52°28' E 004°40'0 0.0
2017-Dec-10 16:30N 52°28' E 004°40'0 0.0
2017-Dec-10 16:00N 52°28' E 004°40'0 0.0
2017-Dec-10 15:30N 52°28' E 004°40'0 0.0
2017-Dec-10 15:00N 52°28' E 004°40'0 0.0
2017-Dec-10 14:27N 52°28' E 004°40'0 0.0
2017-Dec-10 14:00N 52°28' E 004°40'0 0.0
2017-Dec-10 13:27N 52°28' E 004°40'0 0.0
2017-Dec-10 13:00N 52°28' E 004°40'0 0.0
2017-Dec-10 12:30N 52°28' E 004°40'0 0.0
2017-Dec-10 11:57N 52°28' E 004°40'0 0.0
2017-Dec-10 11:30N 52°28' E 004°40'0 0.0
2017-Dec-10 11:00N 52°28' E 004°40'0 0.0
2017-Dec-10 10:30N 52°28' E 004°40'0 0.0
2017-Dec-10 10:00N 52°28' E 004°40'0 0.0
2017-Dec-10 09:30N 52°28' E 004°40'0 0.0
2017-Dec-10 09:00N 52°28' E 004°40'0 0.0
2017-Dec-10 08:30N 52°28' E 004°40'0 0.0
2017-Dec-10 07:57N 52°28' E 004°40'0 0.0
2017-Dec-10 07:30N 52°28' E 004°40'0 0.0
2017-Dec-10 07:00N 52°28' E 004°40'0 0.0
2017-Dec-10 06:30N 52°28' E 004°40'0 0.0
2017-Dec-10 06:00N 52°28' E 004°40'0 0.0
2017-Dec-10 05:30N 52°28' E 004°40'0 0.0
2017-Dec-10 04:57N 52°28' E 004°40'0 0.0
2017-Dec-10 04:30N 52°28' E 004°40'0 0.0
2017-Dec-10 03:51N 52°28' E 004°40'0 0.0
2017-Dec-10 03:30N 52°28' E 004°40'0 0.0
2017-Dec-10 03:00N 52°28' E 004°40'0 0.0
2017-Dec-10 02:30N 52°28' E 004°40'0 0.0
2017-Dec-10 02:00N 52°28' E 004°40'0 0.0
2017-Dec-10 01:30N 52°28' E 004°40'0 0.0
2017-Dec-10 01:00N 52°28' E 004°40'0 0.0
2017-Dec-10 00:27N 52°28' E 004°40'0 0.0
2017-Dec-10 00:00N 52°28' E 004°40'0 0.0
2017-Dec-09 23:27N 52°28' E 004°40'0 0.0
2017-Dec-09 23:00N 52°28' E 004°40'0 0.0
2017-Dec-09 22:30N 52°28' E 004°40'0 0.0
2017-Dec-09 22:00N 52°28' E 004°40'0 0.0
2017-Dec-09 21:27N 52°28' E 004°40'0 0.0
2017-Dec-09 21:00N 52°28' E 004°40'0 0.0
2017-Dec-09 20:30N 52°28' E 004°40'0 0.0
2017-Dec-09 19:57N 52°28' E 004°40'0 0.0
2017-Dec-09 19:30N 52°28' E 004°40'0 0.0
2017-Dec-09 19:00N 52°28' E 004°40'0 0.0
2017-Dec-09 18:30N 52°28' E 004°40'0 0.0
2017-Dec-09 17:57N 52°28' E 004°40'0 0.0
2017-Dec-09 17:30N 52°28' E 004°40'0 0.0
2017-Dec-09 17:00N 52°28' E 004°40'0 0.0
2017-Dec-09 16:30N 52°28' E 004°40'0 0.0
2017-Dec-09 16:00N 52°28' E 004°40'0 0.0
2017-Dec-09 15:27N 52°28' E 004°40'0 0.0
2017-Dec-09 15:00N 52°28' E 004°40'0 0.0
2017-Dec-09 14:30N 52°28' E 004°40'0 0.0
2017-Dec-09 13:57N 52°28' E 004°40'0 0.0
2017-Dec-09 13:30N 52°28' E 004°40'0 0.0
2017-Dec-09 13:00N 52°28' E 004°40'0 0.0
2017-Dec-09 12:30N 52°28' E 004°40'0 0.0
2017-Dec-09 12:00N 52°28' E 004°40'0 0.0
2017-Dec-09 11:30N 52°28' E 004°40'0 0.0
2017-Dec-09 11:00N 52°28' E 004°40'0 0.0
2017-Dec-09 10:30N 52°28' E 004°40'0 0.0
2017-Dec-09 10:00N 52°28' E 004°40'0 0.0
2017-Dec-09 09:30N 52°28' E 004°40'0 0.0
2017-Dec-09 09:00N 52°28' E 004°40'0 0.0
2017-Dec-09 08:30N 52°28' E 004°40'0 0.0
2017-Dec-09 07:57N 52°28' E 004°40'0 0.0
2017-Dec-09 07:27N 52°28' E 004°40'0 0.0
2017-Dec-09 07:00N 52°28' E 004°40'0 0.0
2017-Dec-09 06:27N 52°28' E 004°40'0 0.0
2017-Dec-09 06:00N 52°28' E 004°40'0 0.0
2017-Dec-09 05:30N 52°28' E 004°40'0 0.0
2017-Dec-09 05:00N 52°28' E 004°40'0 0.0
2017-Dec-09 04:30N 52°28' E 004°40'0 0.0
2017-Dec-09 04:00N 52°28' E 004°40'0 0.0
2017-Dec-09 03:30N 52°28' E 004°40'0 0.0
2017-Dec-09 03:00N 52°28' E 004°40'0 0.0
2017-Dec-09 02:30N 52°28' E 004°40'0 0.0
2017-Dec-09 02:00N 52°28' E 004°40'0 0.0
2017-Dec-09 01:27N 52°28' E 004°40'0 0.0
2017-Dec-09 01:00N 52°28' E 004°40'0 0.0
2017-Dec-09 00:30N 52°28' E 004°40'0 0.0
2017-Dec-09 00:00N 52°28' E 004°40'0 0.0
2017-Dec-08 23:21N 52°28' E 004°40'0 0.0
2017-Dec-08 22:57N 52°28' E 004°40'0 0.0
2017-Dec-08 22:30N 52°28' E 004°40'0 0.0
2017-Dec-08 22:00N 52°28' E 004°40'0 0.0
2017-Dec-08 21:30N 52°28' E 004°40'0 0.0
2017-Dec-08 21:00N 52°28' E 004°40'0 0.0
2017-Dec-08 20:30N 52°28' E 004°40'0 0.0
2017-Dec-08 19:57N 52°28' E 004°40'0 0.0
2017-Dec-08 19:30N 52°28' E 004°40'0 0.0
2017-Dec-08 19:00N 52°28' E 004°40'0 0.0
2017-Dec-08 18:30N 52°28' E 004°40'0 0.0
2017-Dec-08 17:57N 52°28' E 004°40'0 0.0
2017-Dec-08 17:30N 52°28' E 004°40'0 0.0
2017-Dec-08 17:00N 52°28' E 004°40'0 0.0
2017-Dec-08 16:27N 52°28' E 004°40'0 0.0
2017-Dec-08 15:57N 52°28' E 004°40'0 0.0
2017-Dec-08 15:30N 52°28' E 004°40'0 0.0
2017-Dec-08 15:00N 52°28' E 004°40'0 0.0
2017-Dec-08 14:30N 52°28' E 004°40'0 0.0
2017-Dec-08 14:00N 52°28' E 004°40'0 0.0
2017-Dec-08 13:27N 52°28' E 004°40'0 0.0
2017-Dec-08 13:00N 52°28' E 004°40'0 0.0
2017-Dec-08 12:30N 52°28' E 004°40'0 0.0
2017-Dec-08 12:00N 52°28' E 004°40'0 0.0
2017-Dec-08 11:30N 52°28' E 004°40'0 0.0
2017-Dec-08 11:00N 52°28' E 004°40'0 0.0
2017-Dec-08 10:27N 52°28' E 004°40'0 0.0
2017-Dec-08 10:00N 52°28' E 004°40'0 0.0
2017-Dec-08 09:30N 52°28' E 004°40'0 0.0
2017-Dec-08 09:00N 52°28' E 004°40'0 0.0
2017-Dec-08 08:30N 52°28' E 004°40'0 0.0
2017-Dec-08 08:00N 52°28' E 004°40'0 0.0
2017-Dec-08 07:27N 52°28' E 004°40'0 0.0
2017-Dec-08 06:57N 52°28' E 004°40'0 0.0
2017-Dec-08 06:30N 52°28' E 004°40'0 0.0
2017-Dec-08 06:00N 52°28' E 004°40'0 0.0
2017-Dec-08 05:30N 52°28' E 004°40'0 0.0
2017-Dec-08 05:00N 52°28' E 004°40'0 0.0
2017-Dec-08 04:30N 52°28' E 004°40'0 0.0
2017-Dec-08 04:00N 52°28' E 004°40'0 0.0
2017-Dec-08 03:27N 52°28' E 004°40'0 0.0
2017-Dec-08 02:57N 52°28' E 004°40'0 0.0
2017-Dec-08 02:27N 52°28' E 004°40'0 0.0
2017-Dec-08 02:00N 52°28' E 004°40'0 0.0
2017-Dec-08 01:27N 52°28' E 004°40'0 0.0
2017-Dec-08 01:00N 52°28' E 004°40'0 0.0
2017-Dec-08 00:30N 52°28' E 004°40'0 0.0
2017-Dec-08 00:00N 52°28' E 004°40'0 0.0
2017-Dec-07 23:30N 52°28' E 004°40'0 0.0
2017-Dec-07 23:00N 52°28' E 004°40'0 0.0
2017-Dec-07 22:27N 52°28' E 004°40'0 0.0
2017-Dec-07 22:00N 52°28' E 004°40'0 0.0
2017-Dec-07 21:30N 52°28' E 004°40'0 0.0
2017-Dec-07 21:00N 52°28' E 004°40'0 0.0
2017-Dec-07 20:30N 52°28' E 004°40'0 0.0
2017-Dec-07 20:00N 52°28' E 004°40'0 0.0
2017-Dec-07 19:30N 52°28' E 004°40'0 0.0
2017-Dec-07 19:00N 52°28' E 004°40'0 0.0
2017-Dec-07 18:27N 52°28' E 004°40'0 0.0
2017-Dec-07 18:00N 52°28' E 004°40'0 0.0
2017-Dec-07 17:30N 52°28' E 004°40'0 0.0
2017-Dec-07 17:00N 52°28' E 004°40'0 0.0
2017-Dec-07 16:30N 52°28' E 004°40'0 0.0
2017-Dec-07 16:00N 52°28' E 004°40'0 0.0
2017-Dec-07 15:30N 52°28' E 004°40'0 0.0
2017-Dec-07 15:00N 52°28' E 004°40'0 0.0
2017-Dec-07 14:30N 52°28' E 004°40'0 0.0
2017-Dec-07 13:57N 52°28' E 004°40'0 0.0
2017-Dec-07 13:30N 52°28' E 004°40'0 0.0
2017-Dec-07 13:00N 52°28' E 004°40'0 0.0
2017-Dec-07 12:27N 52°28' E 004°40'0 0.0
2017-Dec-07 11:57N 52°28' E 004°40'0 0.0
2017-Dec-07 11:27N 52°28' E 004°40'0 0.0
2017-Dec-07 11:00N 52°28' E 004°40'0 0.0
2017-Dec-07 10:30N 52°28' E 004°40'0 0.0
2017-Dec-07 10:00N 52°28' E 004°40'0 0.0
2017-Dec-07 09:30N 52°28' E 004°40'0 0.0
2017-Dec-07 09:00N 52°28' E 004°40'0 0.0
2017-Dec-07 08:27N 52°28' E 004°40'0 0.0
2017-Dec-07 08:00N 52°28' E 004°40'0 0.0
2017-Dec-07 07:30N 52°28' E 004°40'0 0.0
2017-Dec-07 06:59N 52°28' E 004°40'0 0.0
2017-Dec-07 06:29N 52°28' E 004°40'0 0.0
2017-Dec-07 05:56N 52°28' E 004°40'0 0.0
2017-Dec-07 05:29N 52°28' E 004°40'0 0.0
2017-Dec-07 04:59N 52°28' E 004°40'0 0.0
2017-Dec-07 04:26N 52°28' E 004°40'0 0.0
2017-Dec-07 03:59N 52°28' E 004°40'0 0.0
2017-Dec-07 03:29N 52°28' E 004°40'0 0.0
2017-Dec-07 02:59N 52°28' E 004°40'0 0.0
2017-Dec-07 02:29N 52°28' E 004°40'0 0.0
2017-Dec-07 01:56N 52°28' E 004°40'0 0.0
2017-Dec-07 01:29N 52°28' E 004°40'0 0.0
2017-Dec-07 00:56N 52°28' E 004°40'0 0.0
2017-Dec-07 00:29N 52°28' E 004°40'0 0.0
2017-Dec-06 23:59N 52°28' E 004°40'0 0.0
2017-Dec-06 23:29N 52°28' E 004°40'0 0.0
2017-Dec-06 22:59N 52°28' E 004°40'0 0.0
2017-Dec-06 22:29N 52°28' E 004°40'0 0.0
2017-Dec-06 21:59N 52°28' E 004°40'0 0.0
2017-Dec-06 21:29N 52°28' E 004°40'0 0.0
2017-Dec-06 20:59N 52°28' E 004°40'  

Dump ship's entire track history